Blankenberge, Belgium
Current Conditions -  °F | °C
As of 7:50 PM on Thursday 30 Oct 2014 (Local Time) from EBOS Reporting Station
Clear Clear  
Wind Chill: 14°   Ceiling: Unl
Heat Index: 14°   Visibility: 6mi
Dew Point: 11°   Wind: 9mph
Humidity: 82%   Direction: 170°S
Pressure: 30.15"   Gusts: NA
Location:  51.31°N, 3.13°E
Report Text: EBOS 301850Z 17008KT 9000 NSC 14/11 Q1021 NOSIG
Loading
Personal Weather Stations






























Interactive Weather Map
Tropical Storm Tracking
New forecast layout! Learn more

10-Day Weather Forecast

Advertisements
Track Severe Weather on mobile